CheckWX is a tool to help pilots better visualize weather data.  It is not intended as a substitute for an official pre-flight weather briefing.

16:36:32 UTC

KPHX TAF
Phoenix Sky Harbor International Airport
Phoenix, Arizona, USA
KPHX 191434Z 1915/2018 12006KT P6SM BKN110 BKN250 FM192100 14012KT P6SM VCSH SCT060 BKN090 OVC250 TEMPO 1921/2001 SHRA BKN050 OVC070 FM200100 17012KT 6SM SHRA SCT030 BKN040 OVC080 FM200700 19015KT P6SM VCSH SCT030 BKN070 OVC150 FM201500 20018G28KT 5SM SHRA BKN025

Nov-19@
15:00 UTC

Nov-19 @ 15:00 UTC

Nov-19@
21:00 UTC

Nov-19 @ 21:00 UTC

KPHX 191434Z 1915/2018 12006KT P6SM BKN110 BKN250
Wind
  • 120° at 6 KTS
Cloud Levels
  • Broken at 11,000' AGL
  • Broken at 25,000' AGL

Nov-19@
21:00 UTC

Nov-19 @ 21:00 UTC

Nov-20@
01:00 UTC

Nov-20 @ 01:00 UTC

FM192100 14012KT P6SM VCSH SCT060 BKN090 OVC250

From

From Standard forecast or significant change

Wind
  • 140° at 12 KTS
Cloud Levels
  • Scattered at 6,000' AGL
  • Broken at 9,000' AGL
  • Overcast at 25,000' AGL

Nov-19@
21:00 UTC

Nov-19 @ 21:00 UTC

Nov-20@
01:00 UTC

Nov-20 @ 01:00 UTC

TEMPO 1921/2001 SHRA BKN050 OVC070

Temporary

Temporary Changes expected for less than half the time period

Conditions
Rain
Cloud Levels
  • Broken at 5,000' AGL
  • Overcast at 7,000' AGL

Nov-20@
01:00 UTC

Nov-20 @ 01:00 UTC

Nov-20@
07:00 UTC

Nov-20 @ 07:00 UTC

FM200100 17012KT 6SM SHRA SCT030 BKN040 OVC080

From

From Standard forecast or significant change

Wind
  • 170° at 12 KTS
Conditions
Rain
Cloud Levels
  • Scattered at 3,000' AGL
  • Broken at 4,000' AGL
  • Overcast at 8,000' AGL

Nov-20@
07:00 UTC

Nov-20 @ 07:00 UTC

Nov-20@
15:00 UTC

Nov-20 @ 15:00 UTC

FM200700 19015KT P6SM VCSH SCT030 BKN070 OVC150

From

From Standard forecast or significant change

Wind
  • 190° at 15 KTS
Cloud Levels
  • Scattered at 3,000' AGL
  • Broken at 7,000' AGL
  • Overcast at 15,000' AGL

Nov-20@
15:00 UTC

Nov-20 @ 15:00 UTC

Nov-20@
18:00 UTC

Nov-20 @ 18:00 UTC

FM201500 20018G28KT 5SM SHRA BKN025

From

From Standard forecast or significant change

Wind
  • 200° at 18 KTS
  • {Gusting to 28 KTS
Conditions
Rain
Cloud Levels
  • Broken at 2,500' AGL